sensor_id;sensor_type;location;lat;lon;timestamp;pressure;altitude;pressure_sealevel;temperature;humidity
4012;BME280;2020;48.682;9.024;2024-03-06T00:01:36;96448.38;;;3.60;100.00
4012;BME280;2020;48.682;9.024;2024-03-06T00:04:03;96440.56;;;3.62;100.00
4012;BME280;2020;48.682;9.024;2024-03-06T00:06:29;96442.53;;;3.58;100.00
4012;BME280;2020;48.682;9.024;2024-03-06T00:08:55;96449.00;;;3.64;100.00
4012;BME280;2020;48.682;9.024;2024-03-06T00:11:20;96448.78;;;3.67;100.00
4012;BME280;2020;48.682;9.024;2024-03-06T00:13:46;96443.16;;;3.73;100.00
4012;BME280;2020;48.682;9.024;2024-03-06T00:16:13;96448.31;;;3.73;100.00
4012;BME280;2020;48.682;9.024;2024-03-06T00:18:38;96452.53;;;3.74;100.00
4012;BME280;2020;48.682;9.024;2024-03-06T00:21:03;96456.03;;;3.73;100.00
4012;BME280;2020;48.682;9.024;2024-03-06T00:23:29;96456.03;;;3.73;100.00
4012;BME280;2020;48.682;9.024;2024-03-06T00:25:54;96457.66;;;3.63;100.00
4012;BME280;2020;48.682;9.024;2024-03-06T00:28:19;96450.84;;;3.62;100.00
4012;BME280;2020;48.682;9.024;2024-03-06T00:30:45;96454.13;;;3.64;100.00
4012;BME280;2020;48.682;9.024;2024-03-06T00:33:10;96452.50;;;3.63;100.00
4012;BME280;2020;48.682;9.024;2024-03-06T00:35:35;96442.69;;;3.68;100.00
4012;BME280;2020;48.682;9.024;2024-03-06T00:38:00;96445.50;;;3.65;100.00
4012;BME280;2020;48.682;9.024;2024-03-06T00:40:28;96445.25;;;3.68;100.00
4012;BME280;2020;48.682;9.024;2024-03-06T00:42:56;96436.00;;;3.65;100.00
4012;BME280;2020;48.682;9.024;2024-03-06T00:45:21;96445.03;;;3.71;100.00
4012;BME280;2020;48.682;9.024;2024-03-06T00:47:47;96437.41;;;3.70;100.00
4012;BME280;2020;48.682;9.024;2024-03-06T00:50:12;96434.97;;;3.68;100.00
4012;BME280;2020;48.682;9.024;2024-03-06T00:52:37;96445.25;;;3.68;100.00
4012;BME280;2020;48.682;9.024;2024-03-06T00:55:03;96447.13;;;3.66;100.00
4012;BME280;2020;48.682;9.024;2024-03-06T00:57:30;96447.47;;;3.73;100.00
4012;BME280;2020;48.682;9.024;2024-03-06T00:59:56;96444.56;;;3.77;100.00
4012;BME280;2020;48.682;9.024;2024-03-06T01:02:21;96446.91;;;3.69;100.00
4012;BME280;2020;48.682;9.024;2024-03-06T01:04:46;96448.78;;;3.67;100.00
4012;BME280;2020;48.682;9.024;2024-03-06T01:07:11;96447.94;;;3.66;100.00
4012;BME280;2020;48.682;9.024;2024-03-06T01:09:37;96447.34;;;3.63;100.00
4012;BME280;2020;48.682;9.024;2024-03-06T01:12:02;96444.66;;;3.64;100.00
4012;BME280;2020;48.682;9.024;2024-03-06T01:14:27;96452.06;;;3.69;100.00
4012;BME280;2020;48.682;9.024;2024-03-06T01:16:52;96448.53;;;3.70;100.00
4012;BME280;2020;48.682;9.024;2024-03-06T01:19:18;96456.25;;;3.70;100.00
4012;BME280;2020;48.682;9.024;2024-03-06T01:21:43;96452.97;;;3.68;100.00
4012;BME280;2020;48.682;9.024;2024-03-06T01:24:08;96450.63;;;3.65;100.00
4012;BME280;2020;48.682;9.024;2024-03-06T01:26:33;96444.28;;;3.58;100.00
4012;BME280;2020;48.682;9.024;2024-03-06T01:28:59;96447.09;;;3.55;100.00
4012;BME280;2020;48.682;9.024;2024-03-06T01:31:24;96443.91;;;3.51;100.00
4012;BME280;2020;48.682;9.024;2024-03-06T01:33:49;96444.84;;;3.50;100.00
4012;BME280;2020;48.682;9.024;2024-03-06T01:36:15;96453.41;;;3.50;100.00
4012;BME280;2020;48.682;9.024;2024-03-06T01:38:40;96441.25;;;3.53;100.00
4012;BME280;2020;48.682;9.024;2024-03-06T01:41:06;96451.09;;;3.59;100.00
4012;BME280;2020;48.682;9.024;2024-03-06T01:43:37;96451.31;;;3.56;100.00
4012;BME280;2020;48.682;9.024;2024-03-06T01:46:06;96449.44;;;3.58;100.00
4012;BME280;2020;48.682;9.024;2024-03-06T01:48:31;96452.72;;;3.60;100.00
4012;BME280;2020;48.682;9.024;2024-03-06T01:51:01;96452.13;;;3.56;100.00
4012;BME280;2020;48.682;9.024;2024-03-06T01:53:29;96456.91;;;3.49;100.00
4012;BME280;2020;48.682;9.024;2024-03-06T01:55:56;96456.19;;;3.47;100.00
4012;BME280;2020;48.682;9.024;2024-03-06T01:58:21;96457.13;;;3.46;100.00
4012;BME280;2020;48.682;9.024;2024-03-06T02:00:49;96458.53;;;3.50;100.00
4012;BME280;2020;48.682;9.024;2024-03-06T02:03:15;96460.19;;;3.51;100.00
4012;BME280;2020;48.682;9.024;2024-03-06T02:05:40;96457.47;;;3.53;100.00
4012;BME280;2020;48.682;9.024;2024-03-06T02:08:06;96454.09;;;3.53;100.00
4012;BME280;2020;48.682;9.024;2024-03-06T02:10:32;96457.38;;;3.55;100.00
4012;BME280;2020;48.682;9.024;2024-03-06T02:12:59;96451.53;;;3.53;100.00
4012;BME280;2020;48.682;9.024;2024-03-06T02:15:24;96462.06;;;3.49;100.00
4012;BME280;2020;48.682;9.024;2024-03-06T02:17:50;96459.78;;;3.45;100.00
4012;BME280;2020;48.682;9.024;2024-03-06T02:20:22;96459.00;;;3.44;100.00
4012;BME280;2020;48.682;9.024;2024-03-06T02:22:47;96455.47;;;3.45;100.00
4012;BME280;2020;48.682;9.024;2024-03-06T02:25:12;96460.41;;;3.48;100.00
4012;BME280;2020;48.682;9.024;2024-03-06T02:27:40;96454.09;;;3.53;100.00
4012;BME280;2020;48.682;9.024;2024-03-06T02:30:05;96459.97;;;3.55;100.00
4012;BME280;2020;48.682;9.024;2024-03-06T02:32:31;96461.81;;;3.53;100.00
4012;BME280;2020;48.682;9.024;2024-03-06T02:34:56;96465.34;;;3.51;100.00
4012;BME280;2020;48.682;9.024;2024-03-06T02:37:21;96471.91;;;3.56;100.00
4012;BME280;2020;48.682;9.024;2024-03-06T02:39:47;96465.91;;;3.55;100.00
4012;BME280;2020;48.682;9.024;2024-03-06T02:42:12;96459.03;;;3.56;100.00
4012;BME280;2020;48.682;9.024;2024-03-06T02:44:37;96458.81;;;3.59;100.00
4012;BME280;2020;48.682;9.024;2024-03-06T02:47:03;96462.53;;;3.55;100.00
4012;BME280;2020;48.682;9.024;2024-03-06T02:49:28;96461.59;;;3.56;100.00
4012;BME280;2020;48.682;9.024;2024-03-06T02:51:53;96460.19;;;3.51;100.00
4012;BME280;2020;48.682;9.024;2024-03-06T02:54:19;96456.91;;;3.49;100.00
4012;BME280;2020;48.682;9.024;2024-03-06T02:56:44;96463.91;;;3.47;100.00
4012;BME280;2020;48.682;9.024;2024-03-06T02:59:10;96459.56;;;3.48;100.00
4012;BME280;2020;48.682;9.024;2024-03-06T03:01:35;96461.81;;;3.53;100.00
4012;BME280;2020;48.682;9.024;2024-03-06T03:04:00;96461.91;;;3.51;100.00
4012;BME280;2020;48.682;9.024;2024-03-06T03:06:25;96459.97;;;3.55;100.00
4012;BME280;2020;48.682;9.024;2024-03-06T03:08:51;96465.09;;;3.55;100.00
4012;BME280;2020;48.682;9.024;2024-03-06T03:11:16;96462.63;;;3.53;100.00
4012;BME280;2020;48.682;9.024;2024-03-06T03:13:41;96460.53;;;3.58;100.00
4012;BME280;2020;48.682;9.024;2024-03-06T03:16:14;96465.22;;;3.53;100.00
4012;BME280;2020;48.682;9.024;2024-03-06T03:18:40;96462.31;;;3.58;100.00
4012;BME280;2020;48.682;9.024;2024-03-06T03:21:08;96465.47;;;3.61;100.00
4012;BME280;2020;48.682;9.024;2024-03-06T03:23:35;96464.22;;;3.67;100.00
4012;BME280;2020;48.682;9.024;2024-03-06T03:26:01;96470.28;;;3.66;100.00
4012;BME280;2020;48.682;9.024;2024-03-06T03:28:26;96459.59;;;3.59;100.00
4012;BME280;2020;48.682;9.024;2024-03-06T03:30:52;96458.59;;;3.62;100.00
4012;BME280;2020;48.682;9.024;2024-03-06T03:33:17;96464.09;;;3.69;100.00
4012;BME280;2020;48.682;9.024;2024-03-06T03:35:42;96469.13;;;3.70;100.00
4012;BME280;2020;48.682;9.024;2024-03-06T03:38:08;96466.09;;;3.65;100.00
4012;BME280;2020;48.682;9.024;2024-03-06T03:40:33;96470.28;;;3.66;100.00
4012;BME280;2020;48.682;9.024;2024-03-06T03:42:58;96467.72;;;3.66;100.00
4012;BME280;2020;48.682;9.024;2024-03-06T03:45:24;96470.78;;;3.71;100.00
4012;BME280;2020;48.682;9.024;2024-03-06T03:47:49;96472.66;;;3.69;100.00
4012;BME280;2020;48.682;9.024;2024-03-06T03:50:14;96481.06;;;3.71;100.00
4012;BME280;2020;48.682;9.024;2024-03-06T03:52:40;96485.28;;;3.72;100.00
4012;BME280;2020;48.682;9.024;2024-03-06T03:55:07;96492.09;;;3.73;100.00
4012;BME280;2020;48.682;9.024;2024-03-06T03:57:33;96493.00;;;3.72;100.00
4012;BME280;2020;48.682;9.024;2024-03-06T03:59:58;96491.59;;;3.68;100.00
4012;BME280;2020;48.682;9.024;2024-03-06T04:02:23;96493.72;;;3.74;100.00
4012;BME280;2020;48.682;9.024;2024-03-06T04:04:48;96491.38;;;3.71;100.00
4012;BME280;2020;48.682;9.024;2024-03-06T04:07:14;96488.78;;;3.71;100.00
4012;BME280;2020;48.682;9.024;2024-03-06T04:09:41;96488.09;;;3.69;100.00
4012;BME280;2020;48.682;9.024;2024-03-06T04:12:06;96487.88;;;3.72;100.00
4012;BME280;2020;48.682;9.024;2024-03-06T04:14:31;96486.00;;;3.74;100.00
4012;BME280;2020;48.682;9.024;2024-03-06T04:16:57;96493.94;;;3.71;100.00
4012;BME280;2020;48.682;9.024;2024-03-06T04:19:22;96490.75;;;3.68;100.00
4012;BME280;2020;48.682;9.024;2024-03-06T04:21:47;96502.69;;;3.69;100.00
4012;BME280;2020;48.682;9.024;2024-03-06T04:24:13;96497.19;;;3.62;100.00
4012;BME280;2020;48.682;9.024;2024-03-06T04:26:38;96507.25;;;3.65;100.00
4012;BME280;2020;48.682;9.024;2024-03-06T04:29:03;96503.53;;;3.69;100.00
4012;BME280;2020;48.682;9.024;2024-03-06T04:31:29;96499.81;;;3.73;100.00
4012;BME280;2020;48.682;9.024;2024-03-06T04:33:54;96501.66;;;3.71;100.00
4012;BME280;2020;48.682;9.024;2024-03-06T04:36:19;96509.50;;;3.70;100.00
4012;BME280;2020;48.682;9.024;2024-03-06T04:38:45;96511.97;;;3.71;100.00
4012;BME280;2020;48.682;9.024;2024-03-06T04:41:10;96513.59;;;3.72;100.00
4012;BME280;2020;48.682;9.024;2024-03-06T04:43:35;96522.63;;;3.78;100.00
4012;BME280;2020;48.682;9.024;2024-03-06T04:46:01;96520.19;;;3.76;100.00
4012;BME280;2020;48.682;9.024;2024-03-06T04:48:26;96523.69;;;3.75;100.00
4012;BME280;2020;48.682;9.024;2024-03-06T04:50:51;96528.59;;;3.78;100.00
4012;BME280;2020;48.682;9.024;2024-03-06T04:53:18;96532.56;;;3.71;100.00
4012;BME280;2020;48.682;9.024;2024-03-06T04:55:45;96534.22;;;3.72;100.00
4012;BME280;2020;48.682;9.024;2024-03-06T04:58:10;96548.00;;;3.71;100.00
4012;BME280;2020;48.682;9.024;2024-03-06T05:00:35;96539.34;;;3.72;100.00
4012;BME280;2020;48.682;9.024;2024-03-06T05:03:01;96539.13;;;3.75;100.00
4012;BME280;2020;48.682;9.024;2024-03-06T05:05:26;96546.72;;;3.77;100.00
4012;BME280;2020;48.682;9.024;2024-03-06T05:07:52;96545.69;;;3.79;100.00
4012;BME280;2020;48.682;9.024;2024-03-06T05:10:17;96545.78;;;3.78;100.00
4012;BME280;2020;48.682;9.024;2024-03-06T05:12:43;96551.78;;;3.78;100.00
4012;BME280;2020;48.682;9.024;2024-03-06T05:15:09;96547.56;;;3.77;100.00
4012;BME280;2020;48.682;9.024;2024-03-06T05:17:34;96550.84;;;3.79;100.00
4012;BME280;2020;48.682;9.024;2024-03-06T05:20:00;96554.34;;;3.78;100.00
4012;BME280;2020;48.682;9.024;2024-03-06T05:22:25;96550.13;;;3.77;100.00
4012;BME280;2020;48.682;9.024;2024-03-06T05:24:51;96556.00;;;3.79;100.00
4012;BME280;2020;48.682;9.024;2024-03-06T05:27:16;96561.38;;;3.76;100.00
4012;BME280;2020;48.682;9.024;2024-03-06T05:29:43;96556.00;;;3.79;100.00
4012;BME280;2020;48.682;9.024;2024-03-06T05:32:08;96557.97;;;3.76;100.00
4012;BME280;2020;48.682;9.024;2024-03-06T05:34:34;96561.16;;;3.79;100.00
4012;BME280;2020;48.682;9.024;2024-03-06T05:37:00;96558.44;;;3.81;100.00
4012;BME280;2020;48.682;9.024;2024-03-06T05:39:26;96557.66;;;3.80;100.00
4012;BME280;2020;48.682;9.024;2024-03-06T05:41:51;96559.28;;;3.82;100.00
4012;BME280;2020;48.682;9.024;2024-03-06T05:44:17;96565.38;;;3.80;100.00
4012;BME280;2020;48.682;9.024;2024-03-06T05:46:43;96565.16;;;3.84;100.00
4012;BME280;2020;48.682;9.024;2024-03-06T05:49:08;96563.00;;;3.77;100.00
4012;BME280;2020;48.682;9.024;2024-03-06T05:51:34;96567.94;;;3.80;100.00
4012;BME280;2020;48.682;9.024;2024-03-06T05:53:59;96571.22;;;3.83;100.00
4012;BME280;2020;48.682;9.024;2024-03-06T05:56:24;96571.22;;;3.83;100.00
4012;BME280;2020;48.682;9.024;2024-03-06T05:58:49;96572.88;;;3.84;100.00
4012;BME280;2020;48.682;9.024;2024-03-06T06:01:15;96579.66;;;3.85;100.00
4012;BME280;2020;48.682;9.024;2024-03-06T06:03:44;96580.81;;;3.80;100.00
4012;BME280;2020;48.682;9.024;2024-03-06T06:06:09;96582.47;;;3.82;100.00
4012;BME280;2020;48.682;9.024;2024-03-06T06:08:34;96587.47;;;3.83;100.00
4012;BME280;2020;48.682;9.024;2024-03-06T06:11:02;96590.19;;;3.82;100.00
4012;BME280;2020;48.682;9.024;2024-03-06T06:13:31;96592.84;;;3.80;100.00
4012;BME280;2020;48.682;9.024;2024-03-06T06:15:59;96605.41;;;3.85;100.00
4012;BME280;2020;48.682;9.024;2024-03-06T06:18:27;96605.41;;;3.85;100.00
4012;BME280;2020;48.682;9.024;2024-03-06T06:20:52;96607.50;;;3.79;100.00
4012;BME280;2020;48.682;9.024;2024-03-06T06:23:18;96609.94;;;3.81;100.00
4012;BME280;2020;48.682;9.024;2024-03-06T06:25:44;96621.09;;;3.82;100.00
4012;BME280;2020;48.682;9.024;2024-03-06T06:28:09;96621.88;;;3.82;100.00
4012;BME280;2020;48.682;9.024;2024-03-06T06:30:35;96622.72;;;3.83;100.00
4012;BME280;2020;48.682;9.024;2024-03-06T06:33:01;96620.03;;;3.84;100.00
4012;BME280;2020;48.682;9.024;2024-03-06T06:35:26;96625.88;;;3.86;100.00
4012;BME280;2020;48.682;9.024;2024-03-06T06:37:52;96626.00;;;3.85;100.00
4012;BME280;2020;48.682;9.024;2024-03-06T06:40:17;96625.31;;;3.83;100.00
4012;BME280;2020;48.682;9.024;2024-03-06T06:42:45;96621.19;;;3.80;100.00
4012;BME280;2020;48.682;9.024;2024-03-06T06:45:14;96621.31;;;3.78;100.00
4012;BME280;2020;48.682;9.024;2024-03-06T06:47:40;96619.44;;;3.80;100.00
4012;BME280;2020;48.682;9.024;2024-03-06T06:50:05;96631.16;;;3.85;100.00
4012;BME280;2020;48.682;9.024;2024-03-06T06:52:30;96632.09;;;3.84;100.00
4012;BME280;2020;48.682;9.024;2024-03-06T06:54:58;96627.88;;;3.83;100.00
4012;BME280;2020;48.682;9.024;2024-03-06T06:57:24;96627.88;;;3.83;100.00
4012;BME280;2020;48.682;9.024;2024-03-06T06:59:49;96628.31;;;3.76;100.00
4012;BME280;2020;48.682;9.024;2024-03-06T07:02:14;96628.09;;;3.79;100.00
4012;BME280;2020;48.682;9.024;2024-03-06T07:04:40;96629.97;;;3.77;100.00
4012;BME280;2020;48.682;9.024;2024-03-06T07:07:05;96632.19;;;3.82;100.00
4012;BME280;2020;48.682;9.024;2024-03-06T07:09:30;96638.41;;;3.79;100.00
4012;BME280;2020;48.682;9.024;2024-03-06T07:11:56;96638.19;;;3.83;100.00
4012;BME280;2020;48.682;9.024;2024-03-06T07:14:21;96643.09;;;3.86;100.00
4012;BME280;2020;48.682;9.024;2024-03-06T07:16:46;96639.38;;;3.90;100.00
4012;BME280;2020;48.682;9.024;2024-03-06T07:19:12;96643.69;;;3.89;100.00
4012;BME280;2020;48.682;9.024;2024-03-06T07:21:37;96642.06;;;3.88;100.00
4012;BME280;2020;48.682;9.024;2024-03-06T07:24:03;96646.41;;;3.88;100.00
4012;BME280;2020;48.682;9.024;2024-03-06T07:26:29;96644.03;;;3.85;100.00
4012;BME280;2020;48.682;9.024;2024-03-06T07:28:55;96646.63;;;3.85;100.00
4012;BME280;2020;48.682;9.024;2024-03-06T07:31:20;96651.97;;;3.82;100.00
4012;BME280;2020;48.682;9.024;2024-03-06T07:33:46;96653.19;;;3.89;100.00
4012;BME280;2020;48.682;9.024;2024-03-06T07:36:11;96653.63;;;3.83;100.00
4012;BME280;2020;48.682;9.024;2024-03-06T07:38:36;96653.91;;;3.91;100.00
4012;BME280;2020;48.682;9.024;2024-03-06T07:41:01;96658.13;;;3.92;100.00
4012;BME280;2020;48.682;9.024;2024-03-06T07:43:27;96658.78;;;3.83;100.00
4012;BME280;2020;48.682;9.024;2024-03-06T07:45:52;96659.72;;;3.82;100.00
4012;BME280;2020;48.682;9.024;2024-03-06T07:48:18;96663.81;;;3.84;100.00
4012;BME280;2020;48.682;9.024;2024-03-06T07:50:43;96661.44;;;3.81;100.00
4012;BME280;2020;48.682;9.024;2024-03-06T07:53:08;96665.78;;;3.80;100.00
4012;BME280;2020;48.682;9.024;2024-03-06T07:55:34;96667.00;;;3.88;100.00
4012;BME280;2020;48.682;9.024;2024-03-06T07:57:59;96671.66;;;3.83;100.00
4012;BME280;2020;48.682;9.024;2024-03-06T08:00:24;96672.38;;;3.85;100.00
4012;BME280;2020;48.682;9.024;2024-03-06T08:02:50;96684.31;;;3.86;100.00
4012;BME280;2020;48.682;9.024;2024-03-06T08:05:15;96677.50;;;3.85;100.00
4012;BME280;2020;48.682;9.024;2024-03-06T08:07:41;96679.16;;;3.86;100.00
4012;BME280;2020;48.682;9.024;2024-03-06T08:10:11;96680.59;;;3.90;100.00
4012;BME280;2020;48.682;9.024;2024-03-06T08:12:43;96683.66;;;3.95;100.00
4012;BME280;2020;48.682;9.024;2024-03-06T08:15:12;96684.66;;;4.05;100.00
4012;BME280;2020;48.682;9.024;2024-03-06T08:17:39;96686.28;;;4.06;100.00
4012;BME280;2020;48.682;9.024;2024-03-06T08:20:07;96686.06;;;4.09;100.00
4012;BME280;2020;48.682;9.024;2024-03-06T08:22:42;96687.72;;;4.10;100.00
4012;BME280;2020;48.682;9.024;2024-03-06T08:25:12;96686.06;;;4.09;100.00
4012;BME280;2020;48.682;9.024;2024-03-06T08:27:40;96693.59;;;4.13;100.00
4012;BME280;2020;48.682;9.024;2024-03-06T08:30:06;96697.09;;;4.12;100.00
4012;BME280;2020;48.682;9.024;2024-03-06T08:32:33;96695.94;;;4.16;100.00
4012;BME280;2020;48.682;9.024;2024-03-06T08:35:03;96702.75;;;4.17;100.00
4012;BME280;2020;48.682;9.024;2024-03-06T08:37:31;96705.75;;;4.10;100.00
4012;BME280;2020;48.682;9.024;2024-03-06T08:39:57;96701.81;;;4.18;100.00
4012;BME280;2020;48.682;9.024;2024-03-06T08:42:23;96701.38;;;4.24;100.00
4012;BME280;2020;48.682;9.024;2024-03-06T08:44:48;96701.84;;;4.29;100.00
4012;BME280;2020;48.682;9.024;2024-03-06T08:47:14;96691.81;;;4.37;100.00
4012;BME280;2020;48.682;9.024;2024-03-06T08:49:39;96701.41;;;4.35;100.00
4012;BME280;2020;48.682;9.024;2024-03-06T08:52:05;96693.84;;;4.45;100.00
4012;BME280;2020;48.682;9.024;2024-03-06T08:54:30;96699.81;;;4.46;100.00
4012;BME280;2020;48.682;9.024;2024-03-06T08:56:56;96702.63;;;4.43;100.00
4012;BME280;2020;48.682;9.024;2024-03-06T08:59:23;96699.81;;;4.46;100.00
4012;BME280;2020;48.682;9.024;2024-03-06T09:01:51;96696.03;;;4.38;100.00
4012;BME280;2020;48.682;9.024;2024-03-06T09:04:16;96707.63;;;4.33;100.00
4012;BME280;2020;48.682;9.024;2024-03-06T09:06:42;96706.06;;;4.30;100.00
4012;BME280;2020;48.682;9.024;2024-03-06T09:09:08;96712.38;;;4.26;100.00
4012;BME280;2020;48.682;9.024;2024-03-06T09:11:34;96715.66;;;4.28;100.00
4012;BME280;2020;48.682;9.024;2024-03-06T09:13:59;96707.94;;;4.28;100.00
4012;BME280;2020;48.682;9.024;2024-03-06T09:16:25;96710.06;;;4.34;100.00
4012;BME280;2020;48.682;9.024;2024-03-06T09:18:50;96718.66;;;4.35;100.00
4012;BME280;2020;48.682;9.024;2024-03-06T09:21:15;96721.81;;;4.38;100.00
4012;BME280;2020;48.682;9.024;2024-03-06T09:23:40;96716.88;;;4.35;100.00
4012;BME280;2020;48.682;9.024;2024-03-06T09:26:06;96724.72;;;4.34;100.00
4012;BME280;2020;48.682;9.024;2024-03-06T09:28:31;96727.19;;;4.35;100.00
4012;BME280;2020;48.682;9.024;2024-03-06T09:30:56;96731.63;;;4.33;100.00
4012;BME280;2020;48.682;9.024;2024-03-06T09:33:22;96727.63;;;4.29;100.00
4012;BME280;2020;48.682;9.024;2024-03-06T09:35:48;96736.28;;;4.28;100.00
4012;BME280;2020;48.682;9.024;2024-03-06T09:38:13;96746.16;;;4.34;100.00
4012;BME280;2020;48.682;9.024;2024-03-06T09:40:39;96735.84;;;4.34;100.00
4012;BME280;2020;48.682;9.024;2024-03-06T09:43:07;96743.72;;;4.33;100.00
4012;BME280;2020;48.682;9.024;2024-03-06T09:45:32;96744.28;;;4.36;100.00
4012;BME280;2020;48.682;9.024;2024-03-06T09:47:58;96736.47;;;4.38;100.00
4012;BME280;2020;48.682;9.024;2024-03-06T09:50:24;96741.84;;;4.35;100.00
4012;BME280;2020;48.682;9.024;2024-03-06T09:52:52;96744.06;;;4.39;100.00
4012;BME280;2020;48.682;9.024;2024-03-06T09:55:19;96739.53;;;4.43;100.00
4012;BME280;2020;48.682;9.024;2024-03-06T09:57:45;96732.34;;;4.35;100.00
4012;BME280;2020;48.682;9.024;2024-03-06T10:00:10;96743.09;;;4.29;100.00
4012;BME280;2020;48.682;9.024;2024-03-06T10:02:46;96742.66;;;4.35;100.00
4012;BME280;2020;48.682;9.024;2024-03-06T10:05:21;96747.16;;;4.45;100.00
4012;BME280;2020;48.682;9.024;2024-03-06T10:07:47;96740.97;;;4.47;100.00
4012;BME280;2020;48.682;9.024;2024-03-06T10:10:12;96745.28;;;4.47;100.00
4012;BME280;2020;48.682;9.024;2024-03-06T10:12:39;96741.28;;;4.43;100.00
4012;BME280;2020;48.682;9.024;2024-03-06T10:15:04;96743.63;;;4.46;100.00
4012;BME280;2020;48.682;9.024;2024-03-06T10:17:30;96749.72;;;4.45;100.00
4012;BME280;2020;48.682;9.024;2024-03-06T10:19:55;96743.63;;;4.46;100.00
4012;BME280;2020;48.682;9.024;2024-03-06T10:22:22;96746.69;;;4.51;100.00
4012;BME280;2020;48.682;9.024;2024-03-06T10:24:49;96743.03;;;4.42;100.00
4012;BME280;2020;48.682;9.024;2024-03-06T10:27:16;96739.53;;;4.43;100.00
4012;BME280;2020;48.682;9.024;2024-03-06T10:29:42;96743.41;;;4.49;100.00
4012;BME280;2020;48.682;9.024;2024-03-06T10:32:07;96743.69;;;4.57;100.00
4012;BME280;2020;48.682;9.024;2024-03-06T10:34:33;96747.91;;;4.58;100.00
4012;BME280;2020;48.682;9.024;2024-03-06T10:37:01;96737.81;;;4.55;100.00
4012;BME280;2020;48.682;9.024;2024-03-06T10:39:30;96743.63;;;4.46;100.00
4012;BME280;2020;48.682;9.024;2024-03-06T10:41:56;96744.34;;;4.48;100.00
4012;BME280;2020;48.682;9.024;2024-03-06T10:44:26;96749.22;;;4.39;100.00
4012;BME280;2020;48.682;9.024;2024-03-06T10:46:58;96745.94;;;4.37;100.00
4012;BME280;2020;48.682;9.024;2024-03-06T10:49:26;96746.22;;;4.46;100.00
4012;BME280;2020;48.682;9.024;2024-03-06T10:51:54;96748.13;;;4.55;100.00
4012;BME280;2020;48.682;9.024;2024-03-06T10:54:23;96754.47;;;4.62;100.00
4012;BME280;2020;48.682;9.024;2024-03-06T10:56:52;96754.47;;;4.62;100.00
4012;BME280;2020;48.682;9.024;2024-03-06T10:59:20;96745.41;;;4.70;100.00
4012;BME280;2020;48.682;9.024;2024-03-06T11:01:46;96750.34;;;4.73;100.00
4012;BME280;2020;48.682;9.024;2024-03-06T11:04:12;96752.47;;;4.79;100.00
4012;BME280;2020;48.682;9.024;2024-03-06T11:06:38;96748.25;;;4.78;100.00
4012;BME280;2020;48.682;9.024;2024-03-06T11:09:04;96742.25;;;4.77;100.00
4012;BME280;2020;48.682;9.024;2024-03-06T11:11:29;96753.88;;;4.83;100.00
4012;BME280;2020;48.682;9.024;2024-03-06T11:14:03;96760.88;;;4.70;100.00
4012;BME280;2020;48.682;9.024;2024-03-06T11:16:30;96753.44;;;4.65;100.00
4012;BME280;2020;48.682;9.024;2024-03-06T11:19:07;96746.81;;;4.74;100.00
4012;BME280;2020;48.682;9.024;2024-03-06T11:21:34;96750.09;;;4.76;100.00
4012;BME280;2020;48.682;9.024;2024-03-06T11:24:12;96750.09;;;4.76;100.00
4012;BME280;2020;48.682;9.024;2024-03-06T11:26:54;96753.97;;;4.81;100.00
4012;BME280;2020;48.682;9.024;2024-03-06T11:29:22;96759.03;;;4.83;100.00
4012;BME280;2020;48.682;9.024;2024-03-06T11:32:01;96758.78;;;4.75;100.00
4012;BME280;2020;48.682;9.024;2024-03-06T11:34:27;96762.75;;;4.67;100.00
4012;BME280;2020;48.682;9.024;2024-03-06T11:36:53;96753.84;;;4.72;100.00
4012;BME280;2020;48.682;9.024;2024-03-06T11:39:21;96756.41;;;4.72;100.00
4012;BME280;2020;48.682;9.024;2024-03-06T11:41:48;96753.84;;;4.72;100.00
4012;BME280;2020;48.682;9.024;2024-03-06T11:44:15;96753.84;;;4.72;100.00
4012;BME280;2020;48.682;9.024;2024-03-06T11:49:15;96759.22;;;4.68;100.00
4012;BME280;2020;48.682;9.024;2024-03-06T11:51:41;96764.59;;;4.65;100.00
4012;BME280;2020;48.682;9.024;2024-03-06T11:54:07;96762.75;;;4.67;100.00
4012;BME280;2020;48.682;9.024;2024-03-06T11:56:32;96757.81;;;4.64;100.00
4012;BME280;2020;48.682;9.024;2024-03-06T11:58:58;96759.31;;;4.67;100.00
4012;BME280;2020;48.682;9.024;2024-03-06T12:01:23;96765.81;;;4.73;100.00
4012;BME280;2020;48.682;9.024;2024-03-06T12:03:49;96764.16;;;4.72;100.00
4012;BME280;2020;48.682;9.024;2024-03-06T12:06:15;96760.19;;;4.79;100.00
4012;BME280;2020;48.682;9.024;2024-03-06T12:08:42;96764.16;;;4.72;100.00
4012;BME280;2020;48.682;9.024;2024-03-06T12:11:07;96769.09;;;4.75;100.00
4012;BME280;2020;48.682;9.024;2024-03-06T12:13:33;96763.72;;;4.78;100.00
4012;BME280;2020;48.682;9.024;2024-03-06T12:15:58;96762.28;;;4.74;100.00
4012;BME280;2020;48.682;9.024;2024-03-06T12:18:24;96767.66;;;4.71;100.00
4012;BME280;2020;48.682;9.024;2024-03-06T12:20:50;96773.06;;;4.67;100.00
4012;BME280;2020;48.682;9.024;2024-03-06T12:23:22;96769.03;;;4.63;100.00
4012;BME280;2020;48.682;9.024;2024-03-06T12:25:48;96768.81;;;4.66;100.00
4012;BME280;2020;48.682;9.024;2024-03-06T12:28:14;96772.81;;;4.71;100.00
4012;BME280;2020;48.682;9.024;2024-03-06T12:30:42;96773.28;;;4.64;100.00
4012;BME280;2020;48.682;9.024;2024-03-06T12:33:09;96770.47;;;4.67;100.00
4012;BME280;2020;48.682;9.024;2024-03-06T12:35:35;96775.09;;;4.62;100.00
4012;BME280;2020;48.682;9.024;2024-03-06T12:38:11;96771.59;;;4.63;100.00
4012;BME280;2020;48.682;9.024;2024-03-06T12:40:36;96772.22;;;4.67;100.00
4012;BME280;2020;48.682;9.024;2024-03-06T12:43:02;96774.69;;;4.68;100.00
4012;BME280;2020;48.682;9.024;2024-03-06T12:45:27;96769.09;;;4.75;100.00
4012;BME280;2020;48.682;9.024;2024-03-06T12:47:54;96778.25;;;4.79;100.00
4012;BME280;2020;48.682;9.024;2024-03-06T12:50:19;96775.22;;;4.85;100.00
4012;BME280;2020;48.682;9.024;2024-03-06T12:52:45;96768.78;;;4.91;100.00
4012;BME280;2020;48.682;9.024;2024-03-06T12:55:11;96766.56;;;4.86;100.00
4012;BME280;2020;48.682;9.024;2024-03-06T12:57:36;96774.03;;;4.78;100.00
4012;BME280;2020;48.682;9.024;2024-03-06T13:00:01;96763.50;;;4.81;100.00
4012;BME280;2020;48.682;9.024;2024-03-06T13:02:27;96762.06;;;4.77;100.00
4012;BME280;2020;48.682;9.024;2024-03-06T13:04:52;96763.09;;;4.74;100.00
4012;BME280;2020;48.682;9.024;2024-03-06T13:07:18;96761.13;;;4.78;100.00
4012;BME280;2020;48.682;9.024;2024-03-06T13:09:43;96754.09;;;4.80;100.00
4012;BME280;2020;48.682;9.024;2024-03-06T13:12:09;96752.34;;;4.80;100.00
4012;BME280;2020;48.682;9.024;2024-03-06T13:14:35;96752.94;;;4.84;100.00
4012;BME280;2020;48.682;9.024;2024-03-06T13:17:00;96752.34;;;4.80;100.00
4012;BME280;2020;48.682;9.024;2024-03-06T13:19:26;96750.00;;;4.89;100.00